Latest Weather Observations for Nhill Aerodrome

IDV60801

Issued at 3:03 am EDT Friday 24 February 2017 (issued every 30 minutes, with the page automatically refreshed every 10 minutes)

About weather observations | Map of weather stations | Latest weather observations for VIC | Other Formats
Station Details ID: 078015 Name: NHILL AERODROME Lat: -36.31 Lon: 141.65 Height: 138.9 m
Data from the previous 72 hours. | See also: Recent months at Nhill Aerodrome
Date/Time
EDT
Temp
°C
App
Temp
°C
Dew
Point
°C
Rel
Hum
%
Delta-T
°C
Wind Press
QNH
hPa
Press
MSL
hPa
Rain since
9am
mm
Dir  Spd
km/h
Gust
km/h
Spd
kts
Gust
kts
24/03:00am 12.1 9.4 10.2 88 1.0 S 15 15 8 8 1023.2 - -
24/02:30am 12.7 9.6 10.4 86 1.2 S 17 19 9 10 1023.2 1022.7 0.0
24/02:00am 13.2 9.8 10.7 85 1.3 S 19 24 10 13 1023.5 1023.0 0.0
24/01:30am 13.8 10.4 11.1 84 1.4 S 20 26 11 14 1023.5 1023.0 0.0
24/01:00am 14.2 11.0 11.4 83 1.5 S 19 24 10 13 1023.3 1022.8 0.0
24/12:30am 14.0 11.0 10.8 81 1.7 SSW 17 22 9 12 1023.2 1022.7 0.0
24/12:00am 14.9 11.5 10.7 76 2.2 SSW 19 24 10 13 1023.1 1022.6 0.0
 
Date/Time
EDT
Temp
°C
App
Temp
°C
Dew
Point
°C
Rel
Hum
%
Delta-T
°C
Wind Press
QNH
hPa
Press
MSL
hPa
Rain since
9am
mm
Dir  Spd
km/h
Gust
km/h
Spd
kts
Gust
kts
23/11:30pm 15.9 12.4 10.9 72 2.7 SSW 20 28 11 15 1022.9 1022.4 0.0
23/11:00pm 16.1 13.1 10.6 70 2.9 SSW 17 22 9 12 1022.9 1022.4 0.0
23/10:30pm 16.5 13.5 10.8 69 3.1 SW 17 20 9 11 1022.7 1022.2 0.0
23/10:00pm 17.0 14.4 10.8 67 3.3 SW 15 19 8 10 1022.4 1021.9 0.0
23/09:30pm 18.0 15.1 11.1 64 3.8 SW 17 22 9 12 1022.1 1021.6 0.0
23/09:00pm 18.6 15.2 11.2 62 4.0 SW 20 24 11 13 1021.7 1021.1 0.0
23/08:30pm 19.6 15.5 11.4 59 4.5 SW 24 32 13 17 1021.2 1020.6 0.0
23/08:00pm 21.2 17.0 11.2 53 5.5 SW 24 32 13 17 1020.5 1020.0 0.0
23/07:30pm 22.5 18.4 11.3 49 6.3 SW 24 32 13 17 1020.1 1019.6 0.0
23/07:00pm 23.6 19.8 11.0 45 7.0 SW 22 28 12 15 1019.7 1019.2 0.0
23/06:30pm 24.1 19.9 11.1 44 7.3 WSW 24 35 13 19 1019.6 1019.1 0.0
23/06:00pm 25.2 20.6 11.0 41 8.0 WSW 26 35 14 19 1019.3 1018.8 0.0
23/05:30pm 25.4 21.5 10.8 40 8.2 WSW 22 30 12 16 1019.0 1018.5 0.0
23/05:00pm 25.1 21.1 10.6 40 8.1 SW 22 32 12 17 1018.9 1018.4 0.0
23/04:30pm 25.5 21.2 10.9 40 8.2 SW 24 35 13 19 1019.0 1018.5 0.0
23/04:00pm 25.0 21.6 10.5 40 8.1 W 19 28 10 15 1018.9 1018.4 0.0
23/03:30pm 24.7 21.3 10.6 41 7.9 W 19 26 10 14 1019.1 1018.6 0.0
23/03:00pm 23.8 21.3 11.2 45 7.1 SW 15 26 8 14 1019.3 1018.8 0.0
23/02:30pm 23.5 20.7 11.2 46 6.9 WSW 17 30 9 16 1019.3 1018.8 0.0
23/02:00pm 23.3 20.1 11.4 47 6.7 SSW 19 32 10 17 1019.4 1018.9 0.0
23/01:30pm 23.4 20.4 11.8 48 6.6 SW 19 35 10 19 1019.4 1018.9 0.0
23/01:00pm 23.1 20.1 12.1 50 6.3 SW 19 28 10 15 1019.6 1019.1 0.0
23/12:30pm 20.8 17.5 11.7 56 5.1 SW 20 41 11 22 1019.9 1019.4 0.0
23/12:00pm 20.9 17.8 11.5 55 5.2 SW 19 32 10 17 1019.9 1019.4 0.0
23/11:30am 20.5 17.5 12.5 60 4.5 SSW 20 30 11 16 1019.8 1019.3 0.0
23/11:00am 19.3 16.1 11.8 62 4.2 SW 20 30 11 16 1019.6 1019.1 0.0
23/10:30am 18.9 15.4 12.2 65 3.7 SW 22 33 12 18 1019.4 1018.9 0.0
23/10:00am 18.3 14.4 12.1 67 3.4 SSW 24 33 13 18 1019.2 1018.7 0.0
23/09:30am 17.7 13.4 12.2 70 3.1 SW 26 33 14 18 1018.7 1018.2 0.0
23/09:00am 17.0 13.1 12.1 73 2.7 SW 24 32 13 17 1018.5 1018.0 0.0
23/08:30am 16.9 13.5 12.4 75 2.5 SW 22 32 12 17 1018.0 1017.5 0.0
23/08:00am 16.6 13.8 12.6 77 2.2 SW 19 28 10 15 1017.5 1017.0 0.0
23/07:30am 16.2 13.8 12.7 80 1.9 WSW 17 24 9 13 1017.0 1016.5 0.0
23/07:00am 15.7 13.6 12.5 81 1.8 WSW 15 19 8 10 1016.3 1015.8 0.0
23/06:30am 16.1 13.7 12.8 81 1.8 WSW 17 28 9 15 1015.9 1015.4 0.0
23/06:00am 15.3 14.4 12.6 84 1.5 NW 9 11 5 6 1015.6 1015.0 0.0
23/05:30am 14.9 13.5 12.2 84 1.5 W 11 15 6 8 1015.2 1014.6 0.0
23/05:00am 15.2 13.4 12.2 82 1.6 WSW 13 17 7 9 1014.9 1014.3 0.0
23/04:30am 15.4 12.8 12.0 80 1.9 WSW 17 19 9 10 1014.7 1014.1 0.0
23/04:00am 16.1 12.6 12.1 77 2.2 WSW 22 30 12 16 1014.4 1013.8 0.0
23/03:30am 16.1 13.5 12.1 77 2.2 W 17 24 9 13 1014.3 1013.7 0.0
23/03:00am 16.2 13.0 12.0 76 2.3 WSW 20 30 11 16 1013.9 1013.3 0.0
23/02:30am 16.4 14.1 11.6 73 2.6 W 15 20 8 11 1013.9 1013.3 0.0
23/02:00am 16.8 13.6 11.1 69 3.1 W 19 26 10 14 1014.0 1013.4 0.0
23/01:30am 17.1 13.5 10.7 66 3.4 W 20 24 11 13 1013.8 1013.2 0.0
23/01:00am 17.6 13.5 10.2 62 4.0 W 22 28 12 15 1013.9 1013.3 0.0
23/12:30am 18.0 13.0 9.6 58 4.5 W 26 35 14 19 1013.7 1013.1 0.0
23/12:00am 18.5 13.0 9.0 54 5.0 W 28 41 15 22 1013.5 1012.9 0.0
 
Date/Time
EDT
Temp
°C
App
Temp
°C
Dew
Point
°C
Rel
Hum
%
Delta-T
°C
Wind Press
QNH
hPa
Press
MSL
hPa
Rain since
9am
mm
Dir  Spd
km/h
Gust
km/h
Spd
kts
Gust
kts
22/11:30pm 18.9 12.9 8.8 52 5.3 W 30 35 16 19 1013.2 1012.6 0.0
22/11:00pm 19.2 12.5 8.2 49 5.7 WSW 33 41 18 22 1013.2 1012.6 0.0
22/10:30pm 19.7 12.9 7.8 46 6.2 W 33 44 18 24 1012.8 1012.3 0.0
22/10:00pm 20.5 13.6 7.2 42 6.8 WSW 33 46 18 25 1012.5 1012.0 0.0
22/09:30pm 21.5 14.4 6.6 38 7.6 WSW 33 50 18 27 1011.9 1011.4 0.0
22/09:00pm 22.1 14.7 6.7 37 7.9 WSW 35 46 19 25 1011.3 1010.8 0.0
22/08:30pm 22.3 15.4 6.5 36 8.1 WSW 32 43 17 23 1010.9 1010.4 0.0
22/08:00pm 22.9 13.9 6.6 35 8.4 WSW 43 54 23 29 1010.2 1009.7 0.0
22/07:30pm 24.6 15.6 9.0 37 8.5 WSW 46 57 25 31 1009.6 1009.1 0.0
22/07:00pm 27.5 19.0 9.3 32 10.1 WSW 44 56 24 30 1008.8 1008.2 0.0
22/06:38pm 28.4 19.9 9.2 30 10.7 W 44 63 24 34 1008.2 1007.6 0.0
22/06:30pm 29.0 20.0 8.7 28 11.2 W 46 59 25 32 1008.1 1007.5 0.0
22/06:20pm 30.6 22.4 8.3 25 12.4 W 41 52 22 28 1007.8 1007.2 0.0
22/06:00pm 33.3 25.5 6.6 19 14.6 WNW 37 52 20 28 1007.2 1006.6 0.0
22/05:30pm 33.2 25.2 5.7 18 14.8 WNW 37 54 20 29 1006.9 1006.3 0.0
22/05:27pm 33.8 25.9 6.2 18 15.0 WNW 37 54 20 29 1006.8 1006.2 0.0
22/05:00pm 36.0 25.6 -0.4 10 18.1 NW 44 69 24 37 1006.5 1005.9 0.0
22/04:30pm 35.0 24.5 -1.1 10 17.6 NW 44 65 24 35 1006.6 1006.0 0.0
22/04:00pm 35.0 26.2 -1.1 10 17.7 NNW 35 54 19 29 1007.2 1006.6 0.0
22/03:30pm 34.3 24.3 -1.7 10 17.3 NNW 41 63 22 34 1007.4 1006.8 0.0
22/03:00pm 34.7 25.5 -1.4 10 17.5 NNW 37 56 20 30 1008.1 1007.5 0.0
22/02:30pm 33.5 24.7 -1.0 11 16.7 NNW 35 54 19 29 1008.5 1007.9 0.0
22/02:08pm 33.3 25.1 0.1 12 16.3 NNW 33 52 18 28 1009.0 1008.4 0.0
22/02:00pm 33.6 25.4 0.3 12 16.5 N 33 50 18 27 1009.0 1008.4 0.0
22/01:30pm 31.7 23.1 -0.1 13 15.4 NNW 35 54 19 29 1009.6 1009.1 0.0
22/01:04pm 32.5 24.2 -0.5 12 16.0 NNW 33 52 18 28 1010.3 1009.8 0.0
22/01:00pm 31.6 22.4 -1.2 12 15.6 NNW 37 52 20 28 1010.4 1009.9 0.0
22/12:32pm 31.4 23.1 -0.3 13 15.3 NNW 33 52 18 28 1010.8 1010.3 0.0
22/12:30pm 31.5 22.7 -1.3 12 15.6 NNW 35 52 19 28 1010.9 1010.4 0.0
22/12:00pm 30.4 23.1 -0.1 14 14.7 N 28 48 15 26 1011.2 1010.7 0.0
22/11:58am 30.0 22.6 -0.4 14 14.5 N 28 48 15 26 1011.2 1010.7 0.0
22/11:30am 29.4 22.9 0.1 15 14.0 N 24 39 13 21 1011.1 1010.6 0.0
22/11:00am 27.9 22.0 1.4 18 12.9 NNE 22 43 12 23 1011.7 1011.2 0.0
22/10:30am 25.5 19.3 2.2 22 11.3 NNE 24 37 13 20 1012.2 1011.7 0.0
22/10:00am 23.6 17.7 1.9 24 10.3 NNE 22 37 12 20 1012.7 1012.2 0.0
22/09:30am 22.3 16.9 2.4 27 9.4 NNE 20 33 11 18 1012.9 1012.4 0.0
22/09:00am 20.8 15.5 2.1 29 8.7 NNE 19 32 10 17 1012.9 1012.4 0.0
22/08:30am 18.8 14.4 2.6 34 7.5 NNE 15 22 8 12 1013.2 1012.6 0.0
22/08:00am 17.1 13.1 3.1 39 6.5 NE 13 22 7 12 1013.0 1012.5 0.0
22/07:30am 16.0 12.5 3.4 43 5.8 NE 11 20 6 11 1012.9 1012.4 0.0
22/07:00am 15.1 12.1 4.2 48 5.1 NE 9 17 5 9 1012.9 1012.4 0.0
22/06:30am 15.3 11.6 4.4 48 5.1 NE 13 20 7 11 1012.2 1011.7 0.0
22/06:00am 15.6 12.2 4.0 46 5.4 NE 11 19 6 10 1012.2 1011.7 0.0
22/05:30am 16.0 12.2 3.8 44 5.7 NE 13 20 7 11 1012.5 1012.0 0.0
22/05:00am 16.2 11.7 4.3 45 5.6 NE 17 20 9 11 1012.6 1012.1 0.0
22/04:30am 16.7 12.9 4.1 43 5.9 NE 13 26 7 14 1012.7 1012.2 0.0
22/04:00am 16.8 13.1 4.2 43 5.9 NE 13 20 7 11 1013.0 1012.5 0.0
22/03:30am 16.5 13.5 3.9 43 5.9 NE 9 13 5 7 1013.4 1012.8 0.0
22/03:00am 16.6 13.5 3.7 42 6.0 NE 9 13 5 7 1013.7 1013.1 0.0
22/02:30am 17.2 13.6 3.1 39 6.5 NE 11 17 6 9 1014.0 1013.4 0.0
22/02:00am 16.9 12.8 2.1 37 6.7 NE 13 17 7 9 1014.5 1013.9 0.0
22/01:30am 17.3 12.4 2.1 36 6.9 NE 17 20 9 11 1014.9 1014.3 0.0
22/01:00am 18.2 14.6 2.9 36 7.1 NE 11 17 6 9 1015.2 1014.6 0.0
22/12:30am 18.8 15.5 2.2 33 7.6 NE 9 13 5 7 1015.5 1014.9 0.0
22/12:00am 18.9 15.4 1.0 30 8.0 NE 9 15 5 8 1015.7 1015.2 0.0
 
Date/Time
EDT
Temp
°C
App
Temp
°C
Dew
Point
°C
Rel
Hum
%
Delta-T
°C
Wind Press
QNH
hPa
Press
MSL
hPa
Rain since
9am
mm
Dir  Spd
km/h
Gust
km/h
Spd
kts
Gust
kts
21/11:30pm 19.3 14.2 0.8 29 8.3 NE 17 19 9 10 1015.9 1015.4 0.0
21/11:00pm 19.9 15.2 0.9 28 8.6 NE 15 20 8 11 1016.1 1015.6 0.0
21/10:30pm 20.4 15.8 1.3 28 8.7 ENE 15 17 8 9 1016.1 1015.6 0.0
21/10:00pm 21.0 16.4 1.3 27 9.1 ENE 15 19 8 10 1016.0 1015.5 0.0
21/09:30pm 21.9 17.6 1.0 25 9.6 ENE 13 15 7 8 1016.0 1015.5 0.0
21/09:00pm 21.9 18.1 1.6 26 9.5 ENE 11 13 6 7 1015.8 1015.3 0.0
21/08:30pm 23.3 19.4 1.0 23 10.4 ENE 11 13 6 7 1015.5 1014.9 0.0
21/08:00pm 25.3 21.1 1.4 21 11.4 NE 13 20 7 11 1015.4 1014.8 0.0
21/07:30pm 26.3 22.1 1.6 20 11.9 NE 13 19 7 10 1015.2 1014.6 0.0
21/07:00pm 26.7 22.4 1.2 19 12.2 ENE 13 28 7 15 1015.2 1014.6 0.0
21/06:30pm 26.7 22.4 1.2 19 12.2 NE 13 24 7 13 1015.5 1014.9 0.0
21/06:00pm 26.9 23.0 1.3 19 12.3 N 11 24 6 13 1015.8 1015.3 0.0
21/05:30pm 26.5 22.2 1.0 19 12.2 NNE 13 20 7 11 1016.0 1015.5 0.0
21/05:00pm 26.3 22.1 1.6 20 11.9 N 13 20 7 11 1016.5 1016.0 0.0
21/04:30pm 26.3 22.1 1.6 20 11.9 NNE 13 22 7 12 1016.9 1016.4 0.0
21/04:00pm 25.7 22.3 1.8 21 11.5 NNE 9 17 5 9 1017.0 1016.5 0.0
21/03:30pm 25.0 21.2 1.8 22 11.1 N 11 19 6 10 1017.6 1017.1 0.0
21/03:00pm 25.5 21.3 1.6 21 11.4 ENE 13 26 7 14 1018.1 1017.6 0.0
21/02:30pm 24.5 20.3 1.4 22 10.9 NNE 13 20 7 11 1018.3 1017.8 0.0
21/02:00pm 23.2 19.7 1.5 24 10.2 NNE 9 17 5 9 1019.1 1018.6 0.0
21/01:30pm 23.4 20.6 3.4 27 9.8 N 7 15 4 8 1019.3 1018.8 0.0
21/01:00pm 22.3 18.8 3.4 29 9.1 NE 11 24 6 13 1019.6 1019.1 0.0
21/12:30pm 21.5 17.7 3.7 31 8.6 NNE 13 22 7 12 1020.2 1019.7 0.0
21/12:00pm 21.7 17.7 4.7 33 8.4 NE 15 24 8 13 1020.5 1020.0 0.0
21/11:30am 20.8 16.6 5.6 37 7.6 NE 17 26 9 14 1021.0 1020.4 0.0
21/11:00am 19.4 15.2 5.5 40 6.8 NE 17 28 9 15 1021.2 1020.6 0.0
21/10:30am 17.8 13.2 5.7 45 5.9 ENE 19 28 10 15 1021.5 1020.9 0.0
21/10:00am 16.6 12.1 5.9 49 5.2 E 19 24 10 13 1021.6 1021.0 0.0
21/09:30am 15.3 11.2 6.3 55 4.4 ENE 17 26 9 14 1021.5 1020.9 0.0
21/09:00am 13.7 9.7 6.8 63 3.3 E 17 22 9 12 1021.2 1020.6 0.0
21/08:30am 11.7 8.2 7.0 73 2.3 E 15 20 8 11 1020.8 1020.2 0.0
21/08:00am 10.0 6.4 6.7 80 1.6 E 15 19 8 10 1020.4 1019.9 0.0
21/07:30am 8.3 5.3 5.8 84 1.1 E 11 13 6 7 1020.0 1019.5 0.0
21/07:00am 8.2 4.8 5.8 85 1.1 ESE 13 13 7 7 1019.8 1019.3 0.0
21/06:30am 6.3 3.6 3.6 83 1.1 ESE 7 11 4 6 1019.6 1019.1 0.0
21/06:00am 6.6 3.9 3.6 81 1.3 ESE 7 9 4 5 1019.4 1018.9 0.0
21/05:30am 8.2 5.1 5.5 83 1.2 ESE 11 11 6 6 1019.1 1018.6 0.0
21/05:00am 8.0 5.5 4.9 81 1.4 SE 7 9 4 5 1018.9 1018.4 0.0
21/04:30am 7.8 5.8 4.4 79 1.5 SE 4 7 2 4 1019.1 1018.6 0.0
21/04:00am 8.9 6.5 5.3 78 1.6 SE 7 7 4 4 1019.0 1018.5 0.0
21/03:30am 8.8 6.5 5.0 77 1.7 SE 6 7 3 4 1019.1 1018.6 0.0

Other Formats:

Comma delimited format used in spreadsheet applications
http://www.bom.gov.au/fwo/IDV60801/IDV60801.94827.axf

JavaScript Object Notation format (JSON) in row-major order
http://www.bom.gov.au/fwo/IDV60801/IDV60801.94827.json